»·PEaware :: DCM4157 KVNY-KSFO

DCM4157 :: KVNY-KSFO

FLIGHT INFORMATION

Flight Status: Arrived
Operator: Unknown
More flights by this operator :: More flights under this callsign
Pilot: Chris A. (85)
Aircraft: CESSNA 550 CITATION 2/S2/BRAVO
(C550)
More flights by this aircraft type
Origin: KVNY Van Nuys
United States
Destination: KSFO San Francisco Intl
United States
More flights between these airports :: More routes between these airports
Route: CANOG2 AVE BSR BSR3
File this flight plan on PilotEdge
Remarks: PBN / B1O1 DOF / 180509 SUR / 260B CODE / A08346
Altitude:
(Current/Filed)
30,000ft
Speed:
(Current/Filed)
395kts
Departed: 08-May-18 06:51 PM
Arrived: 08-May-18 07:53 PM
Distance/Time
Traveled:
279nm/1:02
Distance/Time
To Go:
Arrived

Flight Plot

Page will automatically refresh every two minutes.

Flight plan parsing failed; only flown route is shown


Map Options




Map Legend


Flown Route
Filed Route
Departure Airport
Arrival Airport
Navaid (VOR, NDB)
Fix

Horizontal Profiles

Position Reports

Time Latitude Longitude Heading Altitude Ground
Speed
08-May-18 18:33 34.204056 -118.491492 82 805ft 0kts
08-May-18 18:34 34.204056 -118.491492 82 805ft 0kts
08-May-18 18:35 34.204056 -118.491492 82 805ft 0kts
08-May-18 18:36 34.204346 -118.491071 356 805ft 8kts
08-May-18 18:37 34.207864 -118.491438 355 805ft 9kts
08-May-18 18:42 34.204056 -118.491492 91 805ft 0kts
08-May-18 18:43 34.204056 -118.491492 91 805ft 0kts
08-May-18 18:44 34.204056 -118.491492 91 805ft 0kts
08-May-18 18:45 34.204056 -118.491492 91 805ft 0kts
08-May-18 18:46 34.204074 -118.491203 68 805ft 7kts
08-May-18 18:47 34.208298 -118.491472 355 805ft 17kts
08-May-18 18:48 34.211769 -118.491801 355 805ft 9kts
08-May-18 18:49 34.215575 -118.492231 356 805ft 12kts
08-May-18 18:50 34.218759 -118.492176 80 805ft 4kts
08-May-18 18:51 34.215048 -118.490893 175 805ft 77kts
08-May-18 18:52 34.176307 -118.490413 209 2098ft 159kts
08-May-18 18:53 34.145968 -118.524747 225 4020ft 173kts
08-May-18 18:54 34.107077 -118.570994 225 5903ft 188kts
08-May-18 18:55 34.096080 -118.614783 343 8394ft 143kts
08-May-18 18:56 34.134748 -118.621008 353 9305ft 161kts
08-May-18 18:57 34.186926 -118.628362 352 11126ft 218kts
08-May-18 18:58 34.253749 -118.634688 352 12849ft 270kts
08-May-18 18:59 34.333871 -118.642010 348 14572ft 305kts
08-May-18 19:00 34.414179 -118.682559 335 16300ft 326kts
08-May-18 19:01 34.500778 -118.722738 336 17992ft 347kts
08-May-18 19:02 34.595601 -118.766013 336 19731ft 367kts
08-May-18 19:03 34.690918 -118.809571 335 21882ft 364kts
08-May-18 19:04 34.785121 -118.852728 333 24077ft 357kts
08-May-18 19:05 34.866913 -118.912886 319 26268ft 335kts
08-May-18 19:06 34.941458 -118.973990 318 28449ft 306kts
08-May-18 19:07 35.008389 -119.029047 317 30125ft 287kts
08-May-18 19:08 35.079043 -119.087371 318 30101ft 327kts
08-May-18 19:09 35.156480 -119.151305 319 30068ft 364kts
08-May-18 19:10 35.241948 -119.222004 319 30047ft 385kts
08-May-18 19:11 35.330753 -119.295666 319 30041ft 397kts
08-May-18 19:12 35.423291 -119.372658 319 30041ft 404kts
08-May-18 19:13 35.516523 -119.450436 319 30026ft 406kts
08-May-18 19:14 35.570384 -119.558429 276 30026ft 376kts
08-May-18 19:15 35.593388 -119.683899 277 30022ft 377kts
08-May-18 19:16 35.616225 -119.808915 277 30024ft 376kts
08-May-18 19:17 35.638420 -119.931359 277 30025ft 376kts
08-May-18 19:18 35.672826 -120.057113 286 30047ft 381kts
08-May-18 19:19 35.712671 -120.178300 286 30051ft 381kts
08-May-18 19:20 35.751510 -120.296911 285 30055ft 381kts
08-May-18 19:21 35.790813 -120.417435 285 30056ft 381kts
08-May-18 19:22 35.829433 -120.536311 285 30064ft 381kts
08-May-18 19:23 35.868754 -120.657845 285 30065ft 381kts
08-May-18 19:24 35.907544 -120.778253 285 30067ft 380kts
08-May-18 19:25 35.946835 -120.900685 284 30073ft 380kts
08-May-18 19:26 35.985561 -121.021891 284 30078ft 380kts
08-May-18 19:27 36.023158 -121.140036 283 30092ft 379kts
08-May-18 19:28 36.061488 -121.260975 283 30111ft 378kts
08-May-18 19:29 36.099758 -121.382217 283 30128ft 377kts
08-May-18 19:30 36.138055 -121.504201 283 29155ft 388kts
08-May-18 19:31 36.179922 -121.627206 295 27357ft 387kts
08-May-18 19:32 36.264380 -121.713833 317 25581ft 397kts
08-May-18 19:33 36.354469 -121.792158 318 23779ft 391kts
08-May-18 19:34 36.439560 -121.866009 319 21977ft 363kts
08-May-18 19:35 36.537324 -121.903565 340 20188ft 370kts
08-May-18 19:36 36.636375 -121.932662 341 18398ft 364kts
08-May-18 19:37 36.732236 -121.960774 341 16624ft 352kts
08-May-18 19:38 36.826803 -121.986024 343 14787ft 333kts
08-May-18 19:39 36.916984 -122.009515 343 12984ft 329kts
08-May-18 19:40 37.004681 -122.032472 343 12000ft 312kts
08-May-18 19:41 37.087388 -122.054225 343 11270ft 311kts
08-May-18 19:42 37.174628 -122.077183 345 9739ft 312kts
08-May-18 19:43 37.256575 -122.098790 345 8239ft 290kts
08-May-18 19:44 37.329285 -122.116777 354 7693ft 257kts
08-May-18 19:45 37.399225 -122.110927 2 6722ft 256kts
08-May-18 19:46 37.471046 -122.101796 3 6012ft 243kts
08-May-18 19:47 37.523871 -122.130562 288 5140ft 217kts
08-May-18 19:48 37.543651 -122.198898 299 3755ft 205kts
08-May-18 19:49 37.570949 -122.253437 294 3011ft 171kts
08-May-18 19:50 37.589485 -122.298984 295 2043ft 124kts
08-May-18 19:51 37.604344 -122.335442 293 512ft 118kts
08-May-18 19:52 37.617857 -122.367471 297 16ft 72kts
08-May-18 19:53 37.622589 -122.375353 352 16ft 4kts
08-May-18 19:54 37.623801 -122.377901 297 16ft 10kts
08-May-18 19:55 37.625634 -122.382345 298 16ft 12kts

Navigation Log

Ident Type
Flight plan parsing failed, navigation log unavailable